sensor_id;sensor_type;location;lat;lon;timestamp;pressure;altitude;pressure_sealevel;temperature;humidity
61086;BME280;46967;48.876;2.136;2022-07-22T00:00:24;101808.84;;;21.17;71.26
61086;BME280;46967;48.876;2.136;2022-07-22T00:02:49;101816.84;;;21.16;71.15
61086;BME280;46967;48.876;2.136;2022-07-22T00:05:14;101808.94;;;21.16;71.40
61086;BME280;46967;48.876;2.136;2022-07-22T00:07:40;101815.81;;;21.18;71.18
61086;BME280;46967;48.876;2.136;2022-07-22T00:10:07;101818.22;;;21.07;71.23
61086;BME280;46967;48.876;2.136;2022-07-22T00:12:33;101814.56;;;21.10;71.26
61086;BME280;46967;48.876;2.136;2022-07-22T00:14:58;101815.94;;;21.01;72.10
61086;BME280;46967;48.876;2.136;2022-07-22T00:17:24;101816.97;;;20.98;71.61
61086;BME280;46967;48.876;2.136;2022-07-22T00:19:49;101808.38;;;20.95;71.42
61086;BME280;46967;48.876;2.136;2022-07-22T00:22:15;101815.44;;;20.94;71.94
61086;BME280;46967;48.876;2.136;2022-07-22T00:24:40;101808.38;;;20.95;71.70
61086;BME280;46967;48.876;2.136;2022-07-22T00:27:05;101801.09;;;20.84;71.94
61086;BME280;46967;48.876;2.136;2022-07-22T00:29:31;101797.28;;;20.74;71.69
61086;BME280;46967;48.876;2.136;2022-07-22T00:31:56;101801.81;;;20.72;72.17
61086;BME280;46967;48.876;2.136;2022-07-22T00:34:21;101796.53;;;20.72;72.07
61086;BME280;46967;48.876;2.136;2022-07-22T00:36:47;101794.31;;;20.64;72.20
61086;BME280;46967;48.876;2.136;2022-07-22T00:39:12;101785.78;;;20.59;71.97
61086;BME280;46967;48.876;2.136;2022-07-22T00:41:37;101783.31;;;20.56;72.19
61086;BME280;46967;48.876;2.136;2022-07-22T00:44:05;101790.75;;;20.49;73.05
61086;BME280;46967;48.876;2.136;2022-07-22T00:46:32;101787.22;;;20.49;72.44
61086;BME280;46967;48.876;2.136;2022-07-22T00:48:58;101788.44;;;20.43;72.57
61086;BME280;46967;48.876;2.136;2022-07-22T00:51:25;101777.38;;;20.36;72.47
61086;BME280;46967;48.876;2.136;2022-07-22T00:53:52;101784.94;;;20.42;72.34
61086;BME280;46967;48.876;2.136;2022-07-22T00:56:18;101780.88;;;20.37;72.69
61086;BME280;46967;48.876;2.136;2022-07-22T00:58:45;101780.19;;;20.33;72.94
61086;BME280;46967;48.876;2.136;2022-07-22T01:01:11;101782.63;;;20.36;73.71
61086;BME280;46967;48.876;2.136;2022-07-22T01:03:36;101769.47;;;20.36;72.69
61086;BME280;46967;48.876;2.136;2022-07-22T01:06:02;101773.06;;;20.35;72.51
61086;BME280;46967;48.876;2.136;2022-07-22T01:08:28;101764.19;;;20.36;72.75
61086;BME280;46967;48.876;2.136;2022-07-22T01:10:54;101775.53;;;20.38;72.65
61086;BME280;46967;48.876;2.136;2022-07-22T01:13:19;101773.06;;;20.35;72.49
61086;BME280;46967;48.876;2.136;2022-07-22T01:15:45;101779.41;;;20.31;72.80
61086;BME280;46967;48.876;2.136;2022-07-22T01:18:10;101774.41;;;20.26;72.57
61086;BME280;46967;48.876;2.136;2022-07-22T01:20:36;101774.06;;;20.17;72.94
61086;BME280;46967;48.876;2.136;2022-07-22T01:23:02;101771.69;;;20.12;73.10
61086;BME280;46967;48.876;2.136;2022-07-22T01:25:27;101776.03;;;20.13;73.52
61086;BME280;46967;48.876;2.136;2022-07-22T01:27:53;101774.16;;;20.15;72.88
61086;BME280;46967;48.876;2.136;2022-07-22T01:30:19;101768.38;;;20.08;73.58
61086;BME280;46967;48.876;2.136;2022-07-22T01:32:45;101765.72;;;20.08;73.76
61086;BME280;46967;48.876;2.136;2022-07-22T01:35:10;101761.56;;;20.04;73.57
61086;BME280;46967;48.876;2.136;2022-07-22T01:37:35;101765.72;;;20.08;73.36
61086;BME280;46967;48.876;2.136;2022-07-22T01:40:02;101764.09;;;20.06;73.42
61086;BME280;46967;48.876;2.136;2022-07-22T01:42:27;101756.13;;;20.07;73.35
61086;BME280;46967;48.876;2.136;2022-07-22T01:44:53;101758.16;;;20.02;73.64
61086;BME280;46967;48.876;2.136;2022-07-22T01:47:18;101761.63;;;20.03;73.37
61086;BME280;46967;48.876;2.136;2022-07-22T01:49:43;101754.78;;;20.00;73.35
61086;BME280;46967;48.876;2.136;2022-07-22T01:52:09;101754.94;;;19.97;73.30
61086;BME280;46967;48.876;2.136;2022-07-22T01:54:35;101760.09;;;19.83;73.70
61086;BME280;46967;48.876;2.136;2022-07-22T01:57:01;101760.09;;;19.83;73.65
61086;BME280;46967;48.876;2.136;2022-07-22T01:59:27;101752.81;;;19.70;73.76
61086;BME280;46967;48.876;2.136;2022-07-22T02:01:53;101753.38;;;19.77;73.65
61086;BME280;46967;48.876;2.136;2022-07-22T02:04:18;101744.09;;;19.70;73.88
61086;BME280;46967;48.876;2.136;2022-07-22T02:06:44;101750.34;;;19.67;73.93
61086;BME280;46967;48.876;2.136;2022-07-22T02:09:09;101751.09;;;19.69;73.83
61086;BME280;46967;48.876;2.136;2022-07-22T02:11:35;101747.03;;;19.64;74.01
61086;BME280;46967;48.876;2.136;2022-07-22T02:14:00;101752.53;;;19.59;73.91
61086;BME280;46967;48.876;2.136;2022-07-22T02:16:26;101754.06;;;19.63;73.80
61086;BME280;46967;48.876;2.136;2022-07-22T02:18:52;101755.19;;;19.59;73.59
61086;BME280;46967;48.876;2.136;2022-07-22T02:21:17;101763.06;;;19.59;73.43
61086;BME280;46967;48.876;2.136;2022-07-22T02:23:43;101754.38;;;19.57;73.67
61086;BME280;46967;48.876;2.136;2022-07-22T02:26:09;101749.66;;;19.64;73.10
61086;BME280;46967;48.876;2.136;2022-07-22T02:28:34;101758.56;;;19.61;73.18
61086;BME280;46967;48.876;2.136;2022-07-22T02:31:00;101758.22;;;19.51;73.36
61086;BME280;46967;48.876;2.136;2022-07-22T02:33:25;101755.50;;;19.53;73.65
61086;BME280;46967;48.876;2.136;2022-07-22T02:35:51;101753.19;;;19.47;73.47
61086;BME280;46967;48.876;2.136;2022-07-22T02:38:16;101753.50;;;19.41;73.81
61086;BME280;46967;48.876;2.136;2022-07-22T02:40:42;101754.50;;;19.38;73.76
61086;BME280;46967;48.876;2.136;2022-07-22T02:43:07;101752.06;;;19.35;74.09
61086;BME280;46967;48.876;2.136;2022-07-22T02:45:33;101754.63;;;19.36;73.95
61086;BME280;46967;48.876;2.136;2022-07-22T02:47:58;101753.66;;;19.37;73.65
61086;BME280;46967;48.876;2.136;2022-07-22T02:50:24;101742.06;;;19.42;73.71
61086;BME280;46967;48.876;2.136;2022-07-22T02:52:50;101750.94;;;19.39;73.85
61086;BME280;46967;48.876;2.136;2022-07-22T02:55:16;101748.56;;;19.34;73.99
61086;BME280;46967;48.876;2.136;2022-07-22T02:57:41;101745.00;;;19.35;73.63
61086;BME280;46967;48.876;2.136;2022-07-22T03:00:08;101743.44;;;19.31;73.63
61086;BME280;46967;48.876;2.136;2022-07-22T03:02:35;101738.66;;;19.22;73.93
61086;BME280;46967;48.876;2.136;2022-07-22T03:05:02;101739.16;;;19.13;74.41
61086;BME280;46967;48.876;2.136;2022-07-22T03:07:27;101736.19;;;19.19;74.33
61086;BME280;46967;48.876;2.136;2022-07-22T03:09:53;101737.28;;;19.15;74.20
61086;BME280;46967;48.876;2.136;2022-07-22T03:12:18;101740.00;;;19.13;74.17
61086;BME280;46967;48.876;2.136;2022-07-22T03:14:43;101741.44;;;19.19;73.81
61086;BME280;46967;48.876;2.136;2022-07-22T03:17:09;101741.56;;;19.17;74.17
61086;BME280;46967;48.876;2.136;2022-07-22T03:19:34;101731.03;;;19.17;73.95
61086;BME280;46967;48.876;2.136;2022-07-22T03:21:59;101730.16;;;19.17;74.15
61086;BME280;46967;48.876;2.136;2022-07-22T03:24:25;101726.69;;;19.16;73.92
61086;BME280;46967;48.876;2.136;2022-07-22T03:26:50;101731.88;;;19.00;74.18
61086;BME280;46967;48.876;2.136;2022-07-22T03:29:15;101727.75;;;18.95;74.61
61086;BME280;46967;48.876;2.136;2022-07-22T03:31:41;101731.66;;;18.88;75.29
61086;BME280;46967;48.876;2.136;2022-07-22T03:34:06;101739.63;;;18.86;75.15
61086;BME280;46967;48.876;2.136;2022-07-22T03:36:31;101739.38;;;18.91;75.38
61086;BME280;46967;48.876;2.136;2022-07-22T03:38:57;101731.28;;;18.95;75.19
61086;BME280;46967;48.876;2.136;2022-07-22T03:41:22;101745.03;;;19.00;75.32
61086;BME280;46967;48.876;2.136;2022-07-22T03:43:48;101734.75;;;18.96;75.39
61086;BME280;46967;48.876;2.136;2022-07-22T03:46:13;101740.59;;;19.01;75.31
61086;BME280;46967;48.876;2.136;2022-07-22T03:48:39;101747.75;;;18.99;75.24
61086;BME280;46967;48.876;2.136;2022-07-22T03:51:04;101737.81;;;19.04;74.79
61086;BME280;46967;48.876;2.136;2022-07-22T03:53:30;101742.25;;;19.04;74.89
61086;BME280;46967;48.876;2.136;2022-07-22T03:55:55;101739.00;;;18.98;74.99
61086;BME280;46967;48.876;2.136;2022-07-22T03:58:20;101752.38;;;18.94;75.31
61086;BME280;46967;48.876;2.136;2022-07-22T04:00:46;101748.66;;;18.98;75.09
61086;BME280;46967;48.876;2.136;2022-07-22T04:03:11;101749.59;;;18.97;75.05
61086;BME280;46967;48.876;2.136;2022-07-22T04:05:36;101744.34;;;18.97;74.72
61086;BME280;46967;48.876;2.136;2022-07-22T04:08:02;101753.31;;;18.93;74.89
61086;BME280;46967;48.876;2.136;2022-07-22T04:10:27;101744.00;;;18.86;74.80
61086;BME280;46967;48.876;2.136;2022-07-22T04:12:53;101734.84;;;18.75;74.94
61086;BME280;46967;48.876;2.136;2022-07-22T04:15:18;101739.19;;;18.76;75.10
61086;BME280;46967;48.876;2.136;2022-07-22T04:17:43;101733.13;;;18.74;75.14
61086;BME280;46967;48.876;2.136;2022-07-22T04:20:09;101733.22;;;18.73;75.68
61086;BME280;46967;48.876;2.136;2022-07-22T04:22:34;101736.63;;;18.75;75.27
61086;BME280;46967;48.876;2.136;2022-07-22T04:25:00;101737.63;;;18.72;75.53
61086;BME280;46967;48.876;2.136;2022-07-22T04:27:25;101738.53;;;18.71;75.46
61086;BME280;46967;48.876;2.136;2022-07-22T04:29:50;101734.25;;;18.70;75.20
61086;BME280;46967;48.876;2.136;2022-07-22T04:32:16;101730.03;;;18.66;75.42
61086;BME280;46967;48.876;2.136;2022-07-22T04:34:41;101736.47;;;18.60;75.30
61086;BME280;46967;48.876;2.136;2022-07-22T04:37:07;101729.44;;;18.61;75.83
61086;BME280;46967;48.876;2.136;2022-07-22T04:39:32;101732.97;;;18.60;75.79
61086;BME280;46967;48.876;2.136;2022-07-22T04:41:58;101733.91;;;18.59;75.42
61086;BME280;46967;48.876;2.136;2022-07-22T04:44:23;101717.28;;;18.58;75.85
61086;BME280;46967;48.876;2.136;2022-07-22T04:46:49;101724.25;;;18.59;76.08
61086;BME280;46967;48.876;2.136;2022-07-22T04:49:14;101725.09;;;18.60;75.65
61086;BME280;46967;48.876;2.136;2022-07-22T04:51:39;101723.69;;;18.53;76.10
61086;BME280;46967;48.876;2.136;2022-07-22T04:54:05;101718.22;;;18.57;75.67
61086;BME280;46967;48.876;2.136;2022-07-22T04:56:30;101708.31;;;18.62;75.67
61086;BME280;46967;48.876;2.136;2022-07-22T04:58:55;101719.75;;;18.61;75.32
61086;BME280;46967;48.876;2.136;2022-07-22T05:01:21;101706.28;;;18.50;75.70
61086;BME280;46967;48.876;2.136;2022-07-22T05:03:46;101710.84;;;18.46;75.87
61086;BME280;46967;48.876;2.136;2022-07-22T05:06:12;101708.28;;;18.45;75.62
61086;BME280;46967;48.876;2.136;2022-07-22T05:08:38;101710.31;;;18.40;76.31
61086;BME280;46967;48.876;2.136;2022-07-22T05:11:03;101703.13;;;18.43;76.16
61086;BME280;46967;48.876;2.136;2022-07-22T05:13:28;101709.28;;;18.42;75.91
61086;BME280;46967;48.876;2.136;2022-07-22T05:15:54;101708.06;;;18.50;76.08
61086;BME280;46967;48.876;2.136;2022-07-22T05:18:19;101706.97;;;18.54;75.78
61086;BME280;46967;48.876;2.136;2022-07-22T05:20:45;101703.03;;;18.45;75.67
61086;BME280;46967;48.876;2.136;2022-07-22T05:23:10;101711.53;;;18.50;75.65
61086;BME280;46967;48.876;2.136;2022-07-22T05:25:35;101706.97;;;18.54;75.48
61086;BME280;46967;48.876;2.136;2022-07-22T05:28:01;101699.03;;;18.55;75.67
61086;BME280;46967;48.876;2.136;2022-07-22T05:30:26;101703.22;;;18.59;76.21
61086;BME280;46967;48.876;2.136;2022-07-22T05:32:52;101690.47;;;18.69;75.87
61086;BME280;46967;48.876;2.136;2022-07-22T05:35:18;101699.50;;;18.81;75.18
61086;BME280;46967;48.876;2.136;2022-07-22T05:37:44;101697.63;;;18.85;74.67
61086;BME280;46967;48.876;2.136;2022-07-22T05:40:09;101706.13;;;18.90;73.96
61086;BME280;46967;48.876;2.136;2022-07-22T05:42:35;101700.16;;;18.86;74.24
61086;BME280;46967;48.876;2.136;2022-07-22T05:45:00;101704.75;;;18.81;74.15
61086;BME280;46967;48.876;2.136;2022-07-22T05:47:25;101707.25;;;18.84;74.30
61086;BME280;46967;48.876;2.136;2022-07-22T05:49:51;101701.00;;;18.87;73.95
61086;BME280;46967;48.876;2.136;2022-07-22T05:52:16;101695.34;;;18.77;74.34
61086;BME280;46967;48.876;2.136;2022-07-22T05:54:41;101682.97;;;18.79;74.49
61086;BME280;46967;48.876;2.136;2022-07-22T05:57:07;101690.84;;;18.79;74.41
61086;BME280;46967;48.876;2.136;2022-07-22T05:59:36;101690.50;;;18.87;73.98
61086;BME280;46967;48.876;2.136;2022-07-22T06:02:02;101686.22;;;18.84;74.20
61086;BME280;46967;48.876;2.136;2022-07-22T06:04:27;101692.81;;;18.93;74.49
61086;BME280;46967;48.876;2.136;2022-07-22T06:06:53;101686.56;;;18.95;74.46
61086;BME280;46967;48.876;2.136;2022-07-22T06:09:18;101694.59;;;19.10;74.21
61086;BME280;46967;48.876;2.136;2022-07-22T06:11:44;101697.81;;;19.15;73.63
61086;BME280;46967;48.876;2.136;2022-07-22T06:14:09;101701.13;;;19.18;73.64
61086;BME280;46967;48.876;2.136;2022-07-22T06:16:35;101698.44;;;19.20;73.47
61086;BME280;46967;48.876;2.136;2022-07-22T06:19:01;101695.72;;;19.22;73.16
61086;BME280;46967;48.876;2.136;2022-07-22T06:21:27;101686.19;;;19.36;72.44
61086;BME280;46967;48.876;2.136;2022-07-22T06:23:52;101686.00;;;19.40;72.49
61086;BME280;46967;48.876;2.136;2022-07-22T06:26:18;101692.44;;;19.34;72.39
61086;BME280;46967;48.876;2.136;2022-07-22T06:28:43;101690.34;;;19.41;72.25
61086;BME280;46967;48.876;2.136;2022-07-22T06:31:09;101685.06;;;19.41;72.76
61086;BME280;46967;48.876;2.136;2022-07-22T06:33:34;101682.19;;;19.45;72.35
61086;BME280;46967;48.876;2.136;2022-07-22T06:35:59;101694.34;;;19.48;72.28
61086;BME280;46967;48.876;2.136;2022-07-22T06:38:25;101687.06;;;19.53;72.40
61086;BME280;46967;48.876;2.136;2022-07-22T06:40:51;101694.31;;;19.65;72.29
61086;BME280;46967;48.876;2.136;2022-07-22T06:43:16;101697.78;;;19.66;71.63
61086;BME280;46967;48.876;2.136;2022-07-22T06:45:41;101703.56;;;19.72;71.36
61086;BME280;46967;48.876;2.136;2022-07-22T06:48:07;101718.72;;;19.85;71.89
61086;BME280;46967;48.876;2.136;2022-07-22T06:50:32;101712.38;;;19.89;70.49
61086;BME280;46967;48.876;2.136;2022-07-22T06:52:57;101716.19;;;19.99;70.27
61086;BME280;46967;48.876;2.136;2022-07-22T06:55:23;101711.00;;;19.98;70.09
61086;BME280;46967;48.876;2.136;2022-07-22T06:57:48;101703.84;;;20.00;70.04
61086;BME280;46967;48.876;2.136;2022-07-22T07:00:14;101711.16;;;20.11;70.41
61086;BME280;46967;48.876;2.136;2022-07-22T07:02:40;101698.47;;;20.17;70.42
61086;BME280;46967;48.876;2.136;2022-07-22T07:05:05;101691.38;;;20.19;69.99
61086;BME280;46967;48.876;2.136;2022-07-22T07:07:31;101692.28;;;20.34;69.61
61086;BME280;46967;48.876;2.136;2022-07-22T07:09:56;101674.63;;;20.51;69.77
61086;BME280;46967;48.876;2.136;2022-07-22T07:12:22;101671.81;;;20.54;68.58
61086;BME280;46967;48.876;2.136;2022-07-22T07:14:47;101671.72;;;20.55;68.26
61086;BME280;46967;48.876;2.136;2022-07-22T07:17:12;101666.00;;;20.63;68.61
61086;BME280;46967;48.876;2.136;2022-07-22T07:19:40;101670.19;;;20.67;68.25
61086;BME280;46967;48.876;2.136;2022-07-22T07:22:05;101667.03;;;20.76;68.89
61086;BME280;46967;48.876;2.136;2022-07-22T07:24:31;101672.56;;;20.72;68.13
61086;BME280;46967;48.876;2.136;2022-07-22T07:26:56;101681.22;;;20.74;67.57
61086;BME280;46967;48.876;2.136;2022-07-22T07:29:21;101680.88;;;20.80;68.57
61086;BME280;46967;48.876;2.136;2022-07-22T07:31:47;101674.69;;;20.95;69.08
61086;BME280;46967;48.876;2.136;2022-07-22T07:34:13;101676.56;;;21.08;68.46
61086;BME280;46967;48.876;2.136;2022-07-22T07:36:38;101683.28;;;21.13;68.38
61086;BME280;46967;48.876;2.136;2022-07-22T07:39:04;101694.41;;;21.18;66.91
61086;BME280;46967;48.876;2.136;2022-07-22T07:41:29;101689.59;;;21.25;67.54
61086;BME280;46967;48.876;2.136;2022-07-22T07:43:54;101675.38;;;21.28;66.23
61086;BME280;46967;48.876;2.136;2022-07-22T07:46:20;101680.81;;;21.39;66.15
61086;BME280;46967;48.876;2.136;2022-07-22T07:48:45;101688.00;;;21.37;66.00
61086;BME280;46967;48.876;2.136;2022-07-22T07:51:12;101694.50;;;21.46;65.88
61086;BME280;46967;48.876;2.136;2022-07-22T07:53:37;101694.16;;;21.52;65.11
61086;BME280;46967;48.876;2.136;2022-07-22T07:56:03;101690.19;;;21.59;65.43
61086;BME280;46967;48.876;2.136;2022-07-22T07:58:28;101688.75;;;21.68;65.43
61086;BME280;46967;48.876;2.136;2022-07-22T08:00:54;101683.88;;;21.76;65.60
61086;BME280;46967;48.876;2.136;2022-07-22T08:03:19;101683.94;;;21.89;65.01
61086;BME280;46967;48.876;2.136;2022-07-22T08:05:45;101678.16;;;21.97;65.05
61086;BME280;46967;48.876;2.136;2022-07-22T08:08:10;101674.44;;;21.99;64.96
61086;BME280;46967;48.876;2.136;2022-07-22T08:10:36;101667.84;;;22.06;63.99
61086;BME280;46967;48.876;2.136;2022-07-22T08:13:01;101676.50;;;22.08;63.63
61086;BME280;46967;48.876;2.136;2022-07-22T08:15:27;101666.13;;;22.05;63.54
61086;BME280;46967;48.876;2.136;2022-07-22T08:17:53;101666.22;;;22.04;64.24
61086;BME280;46967;48.876;2.136;2022-07-22T08:20:19;101670.47;;;22.06;64.56
61086;BME280;46967;48.876;2.136;2022-07-22T08:22:45;101667.63;;;22.10;64.26
61086;BME280;46967;48.876;2.136;2022-07-22T08:25:10;101671.41;;;22.05;64.17
61086;BME280;46967;48.876;2.136;2022-07-22T08:27:36;101666.56;;;22.12;64.56
61086;BME280;46967;48.876;2.136;2022-07-22T08:30:02;101659.59;;;22.11;64.17
61086;BME280;46967;48.876;2.136;2022-07-22T08:32:30;101664.78;;;22.13;63.95
61086;BME280;46967;48.876;2.136;2022-07-22T08:34:55;101670.63;;;22.18;64.26
61086;BME280;46967;48.876;2.136;2022-07-22T08:37:21;101656.34;;;22.20;63.94
61086;BME280;46967;48.876;2.136;2022-07-22T08:39:46;101648.22;;;22.23;65.12
61086;BME280;46967;48.876;2.136;2022-07-22T08:42:11;101638.13;;;22.30;64.08
61086;BME280;46967;48.876;2.136;2022-07-22T08:44:39;101631.22;;;22.28;63.49
61086;BME280;46967;48.876;2.136;2022-07-22T08:47:05;101626.59;;;22.31;63.23
61086;BME280;46967;48.876;2.136;2022-07-22T08:49:30;101618.69;;;22.44;63.34
61086;BME280;46967;48.876;2.136;2022-07-22T08:51:55;101587.50;;;22.49;62.78
61086;BME280;46967;48.876;2.136;2022-07-22T08:54:21;101572.16;;;22.54;63.30
61086;BME280;46967;48.876;2.136;2022-07-22T08:56:50;101552.91;;;22.65;64.47
61086;BME280;46967;48.876;2.136;2022-07-22T08:59:16;101538.00;;;22.64;62.77
61086;BME280;46967;48.876;2.136;2022-07-22T09:02:04;101556.28;;;22.80;63.95
61086;BME280;46967;48.876;2.136;2022-07-22T09:04:30;101566.56;;;22.72;62.74
61086;BME280;46967;48.876;2.136;2022-07-22T09:06:57;101577.84;;;22.87;64.46
61086;BME280;46967;48.876;2.136;2022-07-22T09:09:33;101595.63;;;22.97;61.33
61086;BME280;46967;48.876;2.136;2022-07-22T09:12:08;101623.22;;;23.08;62.97
61086;BME280;46967;48.876;2.136;2022-07-22T09:14:48;101638.97;;;23.22;62.20
61086;BME280;46967;48.876;2.136;2022-07-22T09:19:56;101660.97;;;23.36;60.45
61086;BME280;46967;48.876;2.136;2022-07-22T09:22:43;101651.00;;;23.39;60.12
61086;BME280;46967;48.876;2.136;2022-07-22T09:27:47;101641.63;;;23.59;60.79
61086;BME280;46967;48.876;2.136;2022-07-22T09:30:22;101633.56;;;23.61;60.50
61086;BME280;46967;48.876;2.136;2022-07-22T09:32:48;101618.41;;;23.63;59.89
61086;BME280;46967;48.876;2.136;2022-07-22T09:35:15;101611.22;;;23.65;60.21
61086;BME280;46967;48.876;2.136;2022-07-22T09:37:49;101614.69;;;23.65;59.84
61086;BME280;46967;48.876;2.136;2022-07-22T09:40:19;101619.50;;;23.60;60.27
61086;BME280;46967;48.876;2.136;2022-07-22T09:42:46;101624.25;;;23.55;61.07
61086;BME280;46967;48.876;2.136;2022-07-22T09:45:12;101619.06;;;23.54;60.33
61086;BME280;46967;48.876;2.136;2022-07-22T09:47:41;101627.44;;;23.60;61.66
61086;BME280;46967;48.876;2.136;2022-07-22T09:50:22;101628.66;;;23.67;61.24
61086;BME280;46967;48.876;2.136;2022-07-22T09:52:49;101628.78;;;23.66;59.90
61086;BME280;46967;48.876;2.136;2022-07-22T09:55:17;101634.31;;;23.63;59.97
61086;BME280;46967;48.876;2.136;2022-07-22T09:57:43;101623.31;;;23.56;60.17
61086;BME280;46967;48.876;2.136;2022-07-22T10:00:10;101623.63;;;23.51;60.53
61086;BME280;46967;48.876;2.136;2022-07-22T10:03:00;101622.19;;;23.47;60.25
61086;BME280;46967;48.876;2.136;2022-07-22T10:05:29;101627.16;;;23.39;60.35
61086;BME280;46967;48.876;2.136;2022-07-22T10:07:55;101631.56;;;23.14;61.13
61086;BME280;46967;48.876;2.136;2022-07-22T10:10:23;101621.19;;;23.11;61.25
61086;BME280;46967;48.876;2.136;2022-07-22T10:12:50;101611.19;;;23.02;61.67
61086;BME280;46967;48.876;2.136;2022-07-22T10:15:16;101611.00;;;23.05;61.40
61086;BME280;46967;48.876;2.136;2022-07-22T10:17:44;101606.34;;;22.96;61.77
61086;BME280;46967;48.876;2.136;2022-07-22T10:20:11;101608.88;;;22.85;61.91
61086;BME280;46967;48.876;2.136;2022-07-22T10:25:09;101593.84;;;22.72;63.30
61086;BME280;46967;48.876;2.136;2022-07-22T10:30:27;101591.41;;;22.69;65.02
61086;BME280;46967;48.876;2.136;2022-07-22T10:35:32;101557.13;;;22.55;67.70
61086;BME280;46967;48.876;2.136;2022-07-22T10:38:00;101546.88;;;22.50;68.12
61086;BME280;46967;48.876;2.136;2022-07-22T10:40:28;101548.03;;;22.33;69.61
61086;BME280;46967;48.876;2.136;2022-07-22T10:45:33;101528.75;;;22.31;70.20
61086;BME280;46967;48.876;2.136;2022-07-22T10:48:01;101512.34;;;22.26;70.28
61086;BME280;46967;48.876;2.136;2022-07-22T10:53:04;101489.41;;;22.26;72.41
61086;BME280;46967;48.876;2.136;2022-07-22T10:55:29;101463.06;;;22.25;72.71
61086;BME280;46967;48.876;2.136;2022-07-22T10:57:55;101441.63;;;22.42;71.59
61086;BME280;46967;48.876;2.136;2022-07-22T11:00:20;101428.00;;;22.36;72.80
61086;BME280;46967;48.876;2.136;2022-07-22T11:02:46;101436.44;;;22.41;73.49
61086;BME280;46967;48.876;2.136;2022-07-22T11:05:12;101446.91;;;22.42;74.50
61086;BME280;46967;48.876;2.136;2022-07-22T11:07:42;101441.41;;;22.46;74.15
61086;BME280;46967;48.876;2.136;2022-07-22T11:10:13;101434.03;;;22.51;75.24
61086;BME280;46967;48.876;2.136;2022-07-22T11:12:39;101425.50;;;22.58;75.16
61086;BME280;46967;48.876;2.136;2022-07-22T11:15:05;101414.94;;;22.71;73.98
61086;BME280;46967;48.876;2.136;2022-07-22T11:17:32;101413.25;;;22.70;72.97
61086;BME280;46967;48.876;2.136;2022-07-22T11:20:00;101439.28;;;22.64;72.77
61086;BME280;46967;48.876;2.136;2022-07-22T11:22:26;101452.41;;;22.65;71.22
61086;BME280;46967;48.876;2.136;2022-07-22T11:24:52;101444.91;;;22.59;70.77
61086;BME280;46967;48.876;2.136;2022-07-22T11:27:19;101435.44;;;22.68;71.78
61086;BME280;46967;48.876;2.136;2022-07-22T11:29:52;101409.88;;;22.68;72.22
61086;BME280;46967;48.876;2.136;2022-07-22T11:32:19;101426.66;;;22.80;71.44
61086;BME280;46967;48.876;2.136;2022-07-22T11:34:45;101445.66;;;22.85;72.48
61086;BME280;46967;48.876;2.136;2022-07-22T11:37:12;101442.09;;;22.86;71.51
61086;BME280;46967;48.876;2.136;2022-07-22T11:39:38;101451.94;;;22.84;70.18
61086;BME280;46967;48.876;2.136;2022-07-22T11:42:04;101454.81;;;22.81;70.28
61086;BME280;46967;48.876;2.136;2022-07-22T11:44:35;101469.69;;;22.82;70.95
61086;BME280;46967;48.876;2.136;2022-07-22T11:47:01;101486.34;;;22.84;69.49
61086;BME280;46967;48.876;2.136;2022-07-22T11:49:30;101509.59;;;22.79;68.57
61086;BME280;46967;48.876;2.136;2022-07-22T11:51:56;101538.06;;;22.75;69.16
61086;BME280;46967;48.876;2.136;2022-07-22T11:54:22;101546.22;;;22.72;69.33
61086;BME280;46967;48.876;2.136;2022-07-22T11:56:47;101550.06;;;22.81;68.93
61086;BME280;46967;48.876;2.136;2022-07-22T11:59:14;101553.94;;;22.88;69.10
61086;BME280;46967;48.876;2.136;2022-07-22T12:01:41;101560.81;;;22.91;68.87
61086;BME280;46967;48.876;2.136;2022-07-22T12:04:10;101568.25;;;22.86;69.97
61086;BME280;46967;48.876;2.136;2022-07-22T12:06:38;101569.19;;;22.85;69.94
61086;BME280;46967;48.876;2.136;2022-07-22T12:09:19;101550.97;;;22.93;69.30
61086;BME280;46967;48.876;2.136;2022-07-22T12:11:47;101528.31;;;23.14;69.13
61086;BME280;46967;48.876;2.136;2022-07-22T12:14:18;101521.66;;;23.33;68.12
61086;BME280;46967;48.876;2.136;2022-07-22T12:17:03;101506.16;;;23.52;67.02
61086;BME280;46967;48.876;2.136;2022-07-22T12:19:31;101501.00;;;23.62;66.71
61086;BME280;46967;48.876;2.136;2022-07-22T12:21:59;101507.16;;;23.63;67.44
61086;BME280;46967;48.876;2.136;2022-07-22T12:24:28;101520.38;;;23.63;67.46
61086;BME280;46967;48.876;2.136;2022-07-22T12:26:55;101541.69;;;23.61;67.85
61086;BME280;46967;48.876;2.136;2022-07-22T12:29:23;101546.94;;;23.50;67.58
61086;BME280;46967;48.876;2.136;2022-07-22T12:34:16;101541.63;;;23.50;67.17
61086;BME280;46967;48.876;2.136;2022-07-22T12:36:46;101531.63;;;23.66;66.56
61086;BME280;46967;48.876;2.136;2022-07-22T12:39:16;101519.59;;;23.74;66.95
61086;BME280;46967;48.876;2.136;2022-07-22T12:41:47;101520.41;;;23.87;65.84
61086;BME280;46967;48.876;2.136;2022-07-22T12:44:21;101520.81;;;23.94;65.98
61086;BME280;46967;48.876;2.136;2022-07-22T12:46:49;101524.63;;;23.90;65.46
61086;BME280;46967;48.876;2.136;2022-07-22T12:49:16;101518.75;;;23.97;64.53
61086;BME280;46967;48.876;2.136;2022-07-22T12:52:09;101509.28;;;24.06;64.82
61086;BME280;46967;48.876;2.136;2022-07-22T12:54:35;101503.97;;;24.06;64.27
61086;BME280;46967;48.876;2.136;2022-07-22T12:57:01;101495.38;;;24.02;65.11
61086;BME280;46967;48.876;2.136;2022-07-22T12:59:27;101493.97;;;24.10;64.33
61086;BME280;46967;48.876;2.136;2022-07-22T13:01:52;101490.72;;;24.06;64.34
61086;BME280;46967;48.876;2.136;2022-07-22T13:04:17;101496.38;;;24.01;65.18
61086;BME280;46967;48.876;2.136;2022-07-22T13:06:43;101500.31;;;23.96;64.16